Time;durP1;ratioP1;P1;durP2;ratioP2;P2;SDS_P1;SDS_P2;PMS_P1;PMS_P2;Temp;Humidity;BMP_temperature;BMP_pressure;BME280_temperature;BME280_humidity;BME280_pressure;Samples;Min_cycle;Max_cycle;Signal;HPM_P1;HPM_P2
2023/04/17 00:00:10;;;;;;;74.70;30.88;;;8.50;99.90;;;;;;5093229;28;20044;-65
2023/04/17 00:02:39;;;;;;;78.22;30.77;;;7.30;99.90;;;;;;5093557;28;20129;-64
2023/04/17 00:05:09;;;;;;;71.00;30.27;;;7.20;99.90;;;;;;5093546;28;20040;-63
2023/04/17 00:07:40;;;;;;;77.75;29.88;;;8.40;99.90;;;;;;5093504;28;20048;-64
2023/04/17 00:10:09;;;;;;;73.32;28.63;;;9.10;99.90;;;;;;5093519;28;20048;-63
2023/04/17 00:12:35;;;;;;;73.90;28.30;;;8.60;99.90;;;;;;5093033;28;20048;-63
2023/04/17 00:15:02;;;;;;;61.38;27.63;;;7.30;99.90;;;;;;5093363;28;20500;-64
2023/04/17 00:17:27;;;;;;;64.80;29.05;;;7.70;99.90;;;;;;5093263;28;20491;-63
2023/04/17 00:19:53;;;;;;;57.35;26.45;;;8.40;99.90;;;;;;5093190;28;20040;-63
2023/04/17 00:22:19;;;;;;;65.18;26.55;;;8.20;99.90;;;;;;5093192;28;20046;-63
2023/04/17 00:24:45;;;;;;;65.90;26.95;;;7.20;99.90;;;;;;5093223;28;20098;-63
2023/04/17 00:27:10;;;;;;;56.47;25.98;;;7.80;99.90;;;;;;5092849;28;20055;-65
2023/04/17 00:29:36;;;;;;;56.80;25.52;;;7.90;99.90;;;;;;5093331;28;20472;-65
2023/04/17 00:32:02;;;;;;;56.72;25.92;;;7.50;99.90;;;;;;5091634;28;20127;-63
2023/04/17 00:34:28;;;;;;;58.85;25.52;;;7.20;99.90;;;;;;5092742;28;20400;-63
2023/04/17 00:36:54;;;;;;;60.65;26.42;;;7.40;99.90;;;;;;5093005;28;20055;-64
2023/04/17 00:39:20;;;;;;;68.70;26.42;;;7.90;99.90;;;;;;5092904;28;20040;-64
2023/04/17 00:41:45;;;;;;;61.13;25.92;;;8.10;99.90;;;;;;5092563;28;20056;-64
2023/04/17 00:44:11;;;;;;;62.75;25.30;;;8.10;99.90;;;;;;5092937;28;20058;-68
2023/04/17 00:46:37;;;;;;;71.68;25.08;;;8.00;99.90;;;;;;5092589;28;20091;-64
2023/04/17 00:49:03;;;;;;;122.18;28.15;;;7.10;99.90;;;;;;5092939;28;20040;-64
2023/04/17 00:51:30;;;;;;;;;;;7.90;99.90;;;;;;5093383;28;20039;-63
2023/04/17 00:53:57;;;;;;;58.80;24.20;;;8.50;99.90;;;;;;5092700;28;19920;-63
2023/04/17 00:56:23;;;;;;;70.97;24.42;;;7.10;99.90;;;;;;5091057;28;20480;-63
2023/04/17 00:58:49;;;;;;;82.25;25.63;;;7.20;99.90;;;;;;5092557;28;20483;-63
2023/04/17 01:01:16;;;;;;;;;;;6.70;99.90;;;;;;5092651;28;20499;-63
2023/04/17 01:03:42;;;;;;;73.80;24.80;;;7.30;99.90;;;;;;5092672;28;19924;-64
2023/04/17 01:06:08;;;;;;;;;;;8.20;99.90;;;;;;5092980;28;20178;-63
2023/04/17 01:08:42;;;;;;;103.70;24.80;;;7.60;99.90;;;;;;5091932;28;20007;-73
2023/04/17 01:11:08;;;;;;;78.65;25.58;;;8.00;99.90;;;;;;5092376;28;20071;-67
2023/04/17 01:13:51;;;;;;;133.98;29.75;;;7.80;99.90;;;;;;5092238;28;20040;-63
2023/04/17 01:16:18;;;;;;;82.65;26.15;;;7.20;99.90;;;;;;5092417;28;20391;-64
2023/04/17 01:18:45;;;;;;;135.48;31.60;;;7.10;99.90;;;;;;5091965;28;20492;-64
2023/04/17 01:21:11;;;;;;;204.40;32.30;;;7.10;99.90;;;;;;5092205;28;20048;-63
2023/04/17 01:23:47;;;;;;;114.53;28.13;;;7.00;99.90;;;;;;5091990;28;20143;-63
2023/04/17 01:26:21;;;;;;;65.00;25.13;;;6.50;99.90;;;;;;5092327;28;20051;-64
2023/04/17 01:28:54;;;;;;;96.25;26.05;;;7.80;99.90;;;;;;5092134;28;20041;-63
2023/04/17 01:31:21;;;;;;;92.47;24.75;;;6.90;99.90;;;;;;5092211;28;20133;-63
2023/04/17 01:33:47;;;;;;;;;;;7.60;99.90;;;;;;5092522;28;20713;-64
2023/04/17 01:36:13;;;;;;;81.32;22.45;;;7.10;99.90;;;;;;5092030;28;19924;-64
2023/04/17 01:38:39;;;;;;;93.53;23.30;;;7.30;99.90;;;;;;5091739;28;20055;-63
2023/04/17 01:41:08;;;;;;;78.88;24.20;;;8.10;99.90;;;;;;5092064;28;20048;-67
2023/04/17 01:43:45;;;;;;;60.67;24.45;;;7.00;99.90;;;;;;5092022;28;20059;-63
2023/04/17 01:46:12;;;;;;;63.33;24.20;;;8.20;99.90;;;;;;5092111;28;20040;-64
2023/04/17 01:48:38;;;;;;;70.40;25.73;;;7.20;99.90;;;;;;5091716;28;20496;-63
2023/04/17 01:51:04;;;;;;;75.28;25.75;;;7.00;99.90;;;;;;5091910;28;20044;-63
2023/04/17 01:53:30;;;;;;;;;;;7.20;99.90;;;;;;5090846;28;20565;-68
2023/04/17 01:55:56;;;;;;;75.03;26.20;;;7.90;99.90;;;;;;5092023;28;20018;-64
2023/04/17 01:58:22;;;;;;;74.90;27.85;;;7.50;99.90;;;;;;5091895;28;20047;-66
2023/04/17 02:00:48;;;;;;;86.30;27.98;;;6.20;99.90;;;;;;5091851;28;20392;-64
2023/04/17 02:03:14;;;;;;;129.35;29.40;;;8.70;99.90;;;;;;5091922;28;20044;-64
2023/04/17 02:05:40;;;;;;;122.72;30.08;;;7.10;99.90;;;;;;5091829;28;20070;-64
2023/04/17 02:08:06;;;;;;;168.75;30.80;;;6.70;99.90;;;;;;5090601;28;20381;-66
2023/04/17 02:10:31;;;;;;;168.25;31.00;;;6.80;99.90;;;;;;5090742;28;20047;-64
2023/04/17 02:12:57;;;;;;;186.25;30.85;;;8.00;99.90;;;;;;5091923;28;20134;-67
2023/04/17 02:15:23;;;;;;;115.68;30.50;;;7.50;99.90;;;;;;5091812;28;20130;-65
2023/04/17 02:17:48;;;;;;;108.75;30.15;;;7.90;99.90;;;;;;5091738;28;20044;-64
2023/04/17 02:20:14;;;;;;;76.40;27.05;;;7.70;99.90;;;;;;5091682;28;20055;-64
2023/04/17 02:22:40;;;;;;;103.20;27.60;;;6.50;99.90;;;;;;5095386;28;20082;-63
2023/04/17 02:25:06;;;;;;;94.82;30.17;;;8.50;99.90;;;;;;5095497;28;20048;-64
2023/04/17 02:27:31;;;;;;;100.70;28.92;;;7.90;99.90;;;;;;5095482;28;20055;-63
2023/04/17 02:29:57;;;;;;;127.20;30.65;;;7.20;99.90;;;;;;5095074;28;20047;-65
2023/04/17 02:32:23;;;;;;;140.77;31.42;;;7.60;99.90;;;;;;5095236;28;20130;-66
2023/04/17 02:34:48;;;;;;;173.40;31.00;;;8.20;99.90;;;;;;5095339;28;20044;-63
2023/04/17 02:37:14;;;;;;;158.80;30.45;;;8.10;99.90;;;;;;5095057;28;20051;-64
2023/04/17 02:39:40;;;;;;;141.40;31.27;;;7.10;99.90;;;;;;5095257;28;20094;-63
2023/04/17 02:42:06;;;;;;;162.52;31.35;;;7.30;99.90;;;;;;5095365;28;20044;-63
2023/04/17 02:44:31;;;;;;;156.57;31.27;;;6.70;99.90;;;;;;5095428;28;20093;-63
2023/04/17 02:46:57;;;;;;;106.13;28.98;;;7.90;99.90;;;;;;5095128;28;20083;-63
2023/04/17 02:49:22;;;;;;;128.15;30.67;;;7.30;99.90;;;;;;5095087;28;20120;-64
2023/04/17 02:51:48;;;;;;;94.57;28.33;;;7.20;99.90;;;;;;5094895;28;20569;-67
2023/04/17 02:54:14;;;;;;;111.55;26.95;;;7.10;99.90;;;;;;5095016;28;20052;-64
2023/04/17 02:56:39;;;;;;;157.30;28.90;;;7.50;99.90;;;;;;5095215;28;20044;-63
2023/04/17 02:59:05;;;;;;;149.13;29.90;;;6.80;99.90;;;;;;5094835;28;20044;-63
2023/04/17 03:01:32;;;;;;;99.38;28.67;;;7.70;99.90;;;;;;5094710;28;20131;-63
2023/04/17 03:03:58;;;;;;;124.32;30.00;;;8.10;99.90;;;;;;5093664;28;20519;-65
2023/04/17 03:06:25;;;;;;;92.13;27.10;;;8.20;99.90;;;;;;5094505;28;20186;-64
2023/04/17 03:08:51;;;;;;;107.97;29.25;;;6.70;99.90;;;;;;5094648;28;20089;-63
2023/04/17 03:11:16;;;;;;;136.82;30.67;;;8.20;99.90;;;;;;5094641;28;20052;-63
2023/04/17 03:13:42;;;;;;;110.68;28.17;;;7.10;99.90;;;;;;5094410;28;20048;-64
2023/04/17 03:16:08;;;;;;;104.07;27.15;;;7.10;99.90;;;;;;5094446;28;20048;-64
2023/04/17 03:18:34;;;;;;;111.47;28.10;;;7.00;99.90;;;;;;5093480;28;20130;-65
2023/04/17 03:21:00;;;;;;;107.97;26.08;;;7.90;99.90;;;;;;5094093;28;20055;-66
2023/04/17 03:23:26;;;;;;;98.78;25.98;;;7.90;99.90;;;;;;5076487;28;20056;-63
2023/04/17 03:25:51;;;;;;;119.43;27.50;;;7.70;99.90;;;;;;5094377;28;20040;-64
2023/04/17 03:28:17;;;;;;;104.22;27.60;;;6.90;99.90;;;;;;5094340;28;20084;-64
2023/04/17 03:30:43;;;;;;;102.13;26.45;;;8.40;99.90;;;;;;5093200;28;20056;-64
2023/04/17 03:33:09;;;;;;;125.78;26.90;;;7.20;99.90;;;;;;5093850;28;20052;-66
2023/04/17 03:35:34;;;;;;;92.97;26.92;;;6.40;99.90;;;;;;5092426;28;20097;-63
2023/04/17 03:38:00;;;;;;;126.25;27.45;;;8.10;99.90;;;;;;5094144;28;20075;-64
2023/04/17 03:40:26;;;;;;;99.00;27.05;;;7.70;99.90;;;;;;5094004;28;20055;-67
2023/04/17 03:42:52;;;;;;;183.85;29.10;;;6.90;99.90;;;;;;5093762;28;20075;-63
2023/04/17 03:45:18;;;;;;;108.97;28.27;;;8.60;99.90;;;;;;5093888;28;20101;-63
2023/04/17 03:47:43;;;;;;;117.50;30.77;;;7.00;99.90;;;;;;5093913;28;20056;-67
2023/04/17 03:50:09;;;;;;;224.45;33.38;;;6.60;99.90;;;;;;5093341;28;20055;-64
2023/04/17 03:52:35;;;;;;;115.38;31.52;;;6.70;99.90;;;;;;5093737;28;20044;-63
2023/04/17 03:55:01;;;;;;;131.63;31.75;;;6.60;99.90;;;;;;5092388;28;20075;-63
2023/04/17 03:57:26;;;;;;;119.50;33.50;;;7.30;99.90;;;;;;5093725;28;20048;-63
2023/04/17 03:59:52;;;;;;;99.97;31.38;;;7.10;99.90;;;;;;5093680;28;20081;-68
2023/04/17 04:02:18;;;;;;;82.30;30.83;;;7.70;99.90;;;;;;5093602;28;20046;-64
2023/04/17 04:04:46;;;;;;;101.28;30.85;;;8.10;99.90;;;;;;5093577;28;20476;-63
2023/04/17 04:07:12;;;;;;;139.52;30.60;;;7.10;99.90;;;;;;5093551;28;20181;-63
2023/04/17 04:09:38;;;;;;;290.30;31.90;;;6.60;99.90;;;;;;5093405;28;20134;-65
2023/04/17 04:12:03;;;;;;;201.95;31.80;;;6.60;99.90;;;;;;5093309;28;20055;-64
2023/04/17 04:14:29;;;;;;;165.48;31.58;;;6.60;99.90;;;;;;5093302;28;20132;-65
2023/04/17 04:16:55;;;;;;;148.13;30.60;;;7.90;99.90;;;;;;5093275;28;20087;-64
2023/04/17 04:19:20;;;;;;;185.13;32.80;;;6.60;99.90;;;;;;5092927;28;20048;-64
2023/04/17 04:21:46;;;;;;;150.63;32.70;;;7.50;99.90;;;;;;5093250;28;20048;-64
2023/04/17 04:24:12;;;;;;;130.57;33.35;;;7.60;99.90;;;;;;5093169;28;20126;-63
2023/04/17 04:26:39;;;;;;;108.43;31.27;;;6.70;99.90;;;;;;5092992;28;20137;-63
2023/04/17 04:29:06;;;;;;;113.25;32.25;;;7.60;99.90;;;;;;5093156;28;20056;-64
2023/04/17 04:31:31;;;;;;;;;;;7.50;99.90;;;;;;5093576;28;20127;-63
2023/04/17 04:33:58;;;;;;;76.97;29.00;;;6.50;99.90;;;;;;5093277;28;20019;-64
2023/04/17 04:36:24;;;;;;;84.22;29.00;;;7.80;99.90;;;;;;5093033;28;20059;-63
2023/04/17 04:38:50;;;;;;;87.03;29.42;;;6.60;99.90;;;;;;5091939;28;20154;-70
2023/04/17 04:41:16;;;;;;;;;;;7.10;99.90;;;;;;5093617;28;20047;-64
2023/04/17 04:43:44;;;;;;;98.95;29.63;;;8.10;99.90;;;;;;5092246;28;19942;-64
2023/04/17 04:46:10;;;;;;;123.25;31.63;;;6.90;99.90;;;;;;5092613;28;20056;-64
2023/04/17 04:48:36;;;;;;;115.28;29.92;;;6.50;99.90;;;;;;5093083;28;20054;-64
2023/04/17 04:51:02;;;;;;;115.50;28.45;;;8.00;99.90;;;;;;5092862;28;20051;-64
2023/04/17 04:53:28;;;;;;;99.28;29.35;;;6.70;99.90;;;;;;5092576;28;20187;-63
2023/04/17 04:55:53;;;;;;;87.32;27.73;;;8.00;99.90;;;;;;5092722;28;20100;-64
2023/04/17 04:58:20;;;;;;;79.32;26.92;;;6.80;99.90;;;;;;5092658;28;20445;-63
2023/04/17 05:00:46;;;;;;;84.07;28.65;;;7.80;99.90;;;;;;5091255;28;20057;-68
2023/04/17 05:03:11;;;;;;;73.75;28.08;;;6.60;99.90;;;;;;5090953;28;20046;-64
2023/04/17 05:05:38;;;;;;;65.60;26.80;;;6.90;99.90;;;;;;5092540;28;20047;-64
2023/04/17 05:08:04;;;;;;;75.45;29.08;;;8.50;99.90;;;;;;5091398;28;20063;-64
2023/04/17 05:10:30;;;;;;;72.22;28.70;;;6.70;99.90;;;;;;5092395;28;20059;-64
2023/04/17 05:12:56;;;;;;;76.32;26.02;;;7.10;99.90;;;;;;5092275;28;20048;-64
2023/04/17 05:15:22;;;;;;;63.10;25.30;;;6.40;99.90;;;;;;5092116;28;20059;-66
2023/04/17 05:17:47;;;;;;;64.38;24.23;;;6.90;99.90;;;;;;5092360;28;20479;-64
2023/04/17 05:20:13;;;;;;;62.03;25.02;;;6.90;99.90;;;;;;5092274;28;20082;-64
2023/04/17 05:22:40;;;;;;;62.80;24.85;;;7.30;99.90;;;;;;5092178;28;20040;-64
2023/04/17 05:25:05;;;;;;;;;;;7.20;99.90;;;;;;5092738;28;20118;-64
2023/04/17 05:27:31;;;;;;;54.90;23.63;;;6.90;99.90;;;;;;5092202;28;20014;-64
2023/04/17 05:29:57;;;;;;;53.75;23.70;;;7.90;99.90;;;;;;5091892;28;20043;-63
2023/04/17 05:32:22;;;;;;;54.50;24.27;;;7.00;99.90;;;;;;5092025;28;20074;-68
2023/04/17 05:34:48;;;;;;;56.42;26.17;;;7.10;99.90;;;;;;5091834;28;20062;-64
2023/04/17 05:37:14;;;;;;;59.88;28.10;;;6.90;99.90;;;;;;5091602;28;20066;-64
2023/04/17 05:39:39;;;;;;;57.17;28.35;;;8.00;99.90;;;;;;5090789;28;20052;-64
2023/04/17 05:42:05;;;;;;;60.40;29.50;;;7.40;99.90;;;;;;5092080;28;20059;-66
2023/04/17 05:44:31;;;;;;;68.38;31.70;;;7.80;99.90;;;;;;5091528;28;20048;-64
2023/04/17 05:46:59;;;;;;;69.68;29.77;;;7.30;99.90;;;;;;5092037;28;20123;-64
2023/04/17 05:49:25;;;;;;;69.70;30.15;;;7.60;99.90;;;;;;5092085;28;20055;-64
2023/04/17 05:51:51;;;;;;;69.90;28.90;;;8.40;99.90;;;;;;5091515;28;20475;-65
2023/04/17 05:54:17;;;;;;;62.10;27.73;;;7.40;99.90;;;;;;5092016;28;20044;-64
2023/04/17 05:56:43;;;;;;;51.70;23.73;;;7.70;99.90;;;;;;5095954;28;20480;-64
2023/04/17 05:59:08;;;;;;;49.50;23.48;;;7.80;99.90;;;;;;5095739;28;20087;-64
2023/04/17 06:01:35;;;;;;;49.65;22.58;;;8.10;99.90;;;;;;5095944;28;20052;-68
2023/04/17 06:04:01;;;;;;;57.63;23.92;;;7.90;99.90;;;;;;5095996;28;20105;-65
2023/04/17 06:06:27;;;;;;;62.30;26.52;;;8.10;99.90;;;;;;5095895;28;20040;-64
2023/04/17 06:08:53;;;;;;;75.82;28.90;;;8.30;99.90;;;;;;5095769;28;20059;-64
2023/04/17 06:11:19;;;;;;;79.80;31.75;;;7.30;99.90;;;;;;5095909;28;20039;-64
2023/04/17 06:13:45;;;;;;;66.40;30.60;;;7.40;99.90;;;;;;5095741;28;20128;-67
2023/04/17 06:16:11;;;;;;;66.72;30.25;;;8.20;99.90;;;;;;5095865;28;20408;-64
2023/04/17 06:18:37;;;;;;;66.07;32.10;;;8.00;99.90;;;;;;5095716;28;20044;-65
2023/04/17 06:21:03;;;;;;;62.83;29.90;;;7.80;99.90;;;;;;5095704;28;20089;-63
2023/04/17 06:23:29;;;;;;;;;;;7.30;99.90;;;;;;5085686;28;20044;-62
2023/04/17 06:25:56;;;;;;;56.95;24.33;;;7.60;99.90;;;;;;5095087;28;20118;-63
2023/04/17 06:28:22;;;;;;;44.72;21.50;;;8.00;99.90;;;;;;5095156;28;20084;-63
2023/04/17 06:30:47;;;;;;;49.30;23.65;;;7.40;99.90;;;;;;5094728;28;20048;-62
2023/04/17 06:33:13;;;;;;;42.88;21.15;;;8.10;99.90;;;;;;5094917;28;20036;-61
2023/04/17 06:35:39;;;;;;;45.55;22.27;;;8.40;99.90;;;;;;5091754;28;20051;-65
2023/04/17 06:38:07;;;;;;;45.83;23.00;;;8.50;99.90;;;;;;5094611;28;20059;-65
2023/04/17 06:40:33;;;;;;;44.35;25.48;;;7.80;99.90;;;;;;5094886;28;20052;-64
2023/04/17 06:42:59;;;;;;;44.95;25.83;;;8.30;99.90;;;;;;5094653;28;20472;-65
2023/04/17 06:45:25;;;;;;;43.17;24.92;;;8.80;99.90;;;;;;5094691;28;20048;-65
2023/04/17 06:47:50;;;;;;;46.40;25.45;;;7.70;99.90;;;;;;5094920;28;20052;-64
2023/04/17 06:50:17;;;;;;;46.83;25.65;;;7.90;99.90;;;;;;5094495;28;20108;-66
2023/04/17 06:52:42;;;;;;;;;;;8.50;99.90;;;;;;5094746;28;20056;-66
2023/04/17 06:55:09;;;;;;;48.00;27.30;;;7.80;99.90;;;;;;5094145;28;19920;-65
2023/04/17 07:02:51;;;;;;;50.13;29.90;;;7.50;99.90;;;;;;5135639;27;1285767;-79
2023/04/17 07:05:17;;;;;;;51.03;30.08;;;7.60;99.90;;;;;;5158615;27;20046;-65
2023/04/17 07:07:44;;;;;;;52.17;30.23;;;;;;;;;;5169150;27;20146;-77
2023/04/17 07:10:10;;;;;;;55.17;28.63;;;8.70;99.90;;;;;;5170877;27;20047;-65
2023/04/17 07:12:36;;;;;;;44.33;25.30;;;7.90;99.90;;;;;;5170707;27;20094;-62
2023/04/17 07:15:02;;;;;;;41.92;25.27;;;7.80;99.90;;;;;;5161747;27;20047;-65
2023/04/17 07:17:27;;;;;;;43.65;30.02;;;9.10;99.90;;;;;;5163439;27;20038;-63
2023/04/17 07:19:53;;;;;;;41.80;22.80;;;8.70;99.90;;;;;;5170458;27;20743;-64
2023/04/17 07:22:19;;;;;;;38.22;21.98;;;8.60;99.90;;;;;;5170686;27;20043;-67
2023/04/17 07:24:45;;;;;;;37.92;21.15;;;8.50;99.90;;;;;;5164902;27;20048;-68
2023/04/17 07:27:10;;;;;;;36.38;21.02;;;8.60;99.90;;;;;;5150052;27;20844;-64
2023/04/17 07:29:36;;;;;;;35.35;20.17;;;7.80;99.90;;;;;;5150371;27;20054;-66
2023/04/17 07:32:03;;;;;;;35.75;20.25;;;8.80;99.90;;;;;;5149822;27;20458;-64
2023/04/17 07:34:33;;;;;;;;;;;8.60;99.90;;;;;;5150796;27;20047;-64
2023/04/17 07:36:59;;;;;;;32.05;20.08;;;8.00;99.90;;;;;;5150242;27;20064;-64
2023/04/17 07:39:29;;;;;;;;;;;8.00;99.90;;;;;;5149825;27;20059;-67
2023/04/17 07:41:55;;;;;;;31.90;19.45;;;8.00;99.90;;;;;;5149661;27;19923;-64
2023/04/17 07:44:21;;;;;;;;;;;8.60;99.90;;;;;;5150587;27;20047;-64
2023/04/17 07:46:46;;;;;;;30.50;18.83;;;9.00;99.90;;;;;;5149870;27;19991;-67
2023/04/17 07:49:12;;;;;;;32.13;20.05;;;8.40;99.90;;;;;;5150016;27;20050;-65
2023/04/17 07:51:39;;;;;;;34.95;21.40;;;8.20;99.90;;;;;;5149678;27;20046;-64
2023/04/17 07:54:06;;;;;;;33.55;21.60;;;8.30;99.90;;;;;;5149283;27;20134;-63
2023/04/17 07:56:33;;;;;;;;;;;8.00;99.90;;;;;;5150024;27;20057;-65
2023/04/17 07:58:59;;;;;;;32.42;21.30;;;9.00;99.90;;;;;;5156221;27;19926;-64
2023/04/17 08:01:26;;;;;;;34.83;21.63;;;9.00;99.90;;;;;;5160839;27;20058;-64
2023/04/17 08:03:53;;;;;;;34.75;21.23;;;9.10;99.90;;;;;;5145846;27;20046;-68
2023/04/17 08:06:19;;;;;;;31.70;20.75;;;8.60;99.90;;;;;;5158972;27;20039;-65
2023/04/17 08:08:46;;;;;;;32.55;19.77;;;9.10;99.90;;;;;;5156001;27;20562;-66
2023/04/17 08:11:15;;;;;;;30.15;19.50;;;8.80;99.90;;;;;;5167699;27;20146;-72
2023/04/17 08:13:41;;;;;;;30.40;20.67;;;9.20;99.90;;;;;;5151641;27;20042;-66
2023/04/17 08:16:07;;;;;;;26.58;18.48;;;9.00;99.90;;;;;;5156512;27;20095;-65
2023/04/17 08:18:36;;;;;;;34.92;21.05;;;9.10;99.90;;;;;;5156468;27;20057;-64
2023/04/17 08:21:02;;;;;;;32.80;22.00;;;9.10;99.90;;;;;;5156017;27;20039;-64
2023/04/17 08:23:29;;;;;;;30.35;21.92;;;9.60;99.90;;;;;;5156032;27;20082;-65
2023/04/17 08:25:54;;;;;;;27.92;19.48;;;9.20;99.90;;;;;;5155795;27;20042;-64
2023/04/17 08:28:20;;;;;;;27.38;20.52;;;8.80;99.90;;;;;;5156246;27;20059;-64
2023/04/17 08:30:46;;;;;;;26.92;19.27;;;9.00;99.90;;;;;;5155763;27;20085;-64
2023/04/17 08:33:12;;;;;;;27.25;18.13;;;9.50;99.90;;;;;;5156134;27;20073;-64
2023/04/17 08:35:38;;;;;;;22.00;16.33;;;8.90;99.90;;;;;;5155832;27;20473;-66
2023/04/17 08:38:04;;;;;;;24.88;16.38;;;9.20;99.90;;;;;;5155699;27;20078;-64
2023/04/17 08:40:30;;;;;;;19.70;14.77;;;9.50;99.90;;;;;;5155383;27;20099;-66
2023/04/17 08:42:57;;;;;;;;;;;8.80;99.90;;;;;;5156021;27;20479;-64
2023/04/17 08:45:23;;;;;;;19.55;14.40;;;9.20;99.90;;;;;;5155630;27;19931;-63
2023/04/17 08:47:49;;;;;;;20.60;15.13;;;8.70;99.90;;;;;;5155574;27;20099;-65
2023/04/17 08:50:18;;;;;;;25.17;15.15;;;9.10;99.90;;;;;;5155262;27;20082;-64
2023/04/17 08:52:45;;;;;;;25.92;16.17;;;9.30;99.90;;;;;;5154948;27;20077;-64
2023/04/17 08:55:14;;;;;;;22.40;14.70;;;9.80;99.90;;;;;;5155427;27;20050;-65
2023/04/17 08:58:00;;;;;;;24.98;15.85;;;9.70;99.90;;;;;;5155725;27;20394;-67
2023/04/17 09:00:27;;;;;;;20.88;15.48;;;9.60;99.90;;;;;;5155370;27;20586;-65
2023/04/17 09:02:55;;;;;;;21.00;14.90;;;9.80;99.90;;;;;;5155421;27;20062;-65
2023/04/17 09:05:22;;;;;;;19.55;14.07;;;9.90;99.90;;;;;;5155004;27;20451;-64
2023/04/17 09:08:07;;;;;;;19.52;14.45;;;9.60;99.90;;;;;;5154837;27;20039;-65
2023/04/17 09:10:41;;;;;;;18.27;13.60;;;9.70;99.90;;;;;;5155161;27;20372;-66
2023/04/17 09:13:07;;;;;;;19.63;14.50;;;10.20;99.90;;;;;;5154855;27;20490;-67
2023/04/17 09:15:34;;;;;;;20.52;14.38;;;9.60;99.90;;;;;;5155026;27;20046;-64
2023/04/17 09:18:00;;;;;;;23.90;16.73;;;9.80;99.90;;;;;;5155302;27;20047;-64
2023/04/17 09:20:26;;;;;;;23.75;16.15;;;9.70;99.90;;;;;;5154994;27;20143;-66
2023/04/17 09:22:59;;;;;;;;;;;10.00;99.90;;;;;;5154825;27;20046;-63
2023/04/17 09:25:26;;;;;;;24.23;16.23;;;10.10;99.90;;;;;;5153255;27;19927;-64
2023/04/17 09:27:52;;;;;;;23.00;15.80;;;10.10;99.90;;;;;;5154796;27;20043;-64
2023/04/17 09:30:18;;;;;;;24.02;15.73;;;10.20;99.90;;;;;;5151406;27;20039;-65
2023/04/17 09:32:44;;;;;;;;;;;9.80;99.90;;;;;;5139866;27;20039;-65
2023/04/17 09:35:21;;;;;;;21.35;15.15;;;10.30;99.90;;;;;;5134155;27;19926;-63
2023/04/17 09:37:51;;;;;;;26.83;17.40;;;10.50;99.90;;;;;;5133173;27;20051;-64
2023/04/17 09:40:21;;;;;;;25.52;17.45;;;10.50;99.90;;;;;;5133225;27;20031;-65
2023/04/17 09:42:58;;;;;;;24.05;16.23;;;10.00;99.90;;;;;;5114569;27;20107;-66
2023/04/17 09:45:27;;;;;;;22.98;15.88;;;10.70;99.90;;;;;;5133159;27;20073;-64
2023/04/17 09:47:55;;;;;;;22.98;16.40;;;10.90;99.90;;;;;;5133194;27;20047;-64
2023/04/17 09:50:23;;;;;;;22.50;16.00;;;10.50;99.90;;;;;;5115494;27;20134;-64
2023/04/17 09:52:51;;;;;;;22.80;15.40;;;10.50;99.90;;;;;;5132855;27;20051;-65
2023/04/17 09:55:20;;;;;;;24.65;16.77;;;11.20;99.90;;;;;;5133595;27;20039;-65
2023/04/17 09:57:48;;;;;;;24.58;16.58;;;11.30;99.90;;;;;;5133761;27;20058;-65
2023/04/17 10:00:14;;;;;;;25.25;16.33;;;11.10;99.90;;;;;;5133515;27;20487;-67
2023/04/17 10:02:41;;;;;;;24.33;16.77;;;10.80;99.90;;;;;;5132342;27;20138;-65
2023/04/17 10:05:09;;;;;;;24.52;16.80;;;10.80;99.90;;;;;;5132416;27;20103;-63
2023/04/17 10:07:35;;;;;;;24.35;17.30;;;11.30;99.90;;;;;;5132204;27;20103;-65
2023/04/17 10:10:08;;;;;;;22.42;15.57;;;11.70;99.90;;;;;;5132505;27;20391;-63
2023/04/17 10:12:35;;;;;;;23.85;17.02;;;11.40;99.90;;;;;;5132513;27;20102;-65
2023/04/17 10:15:02;;;;;;;21.02;15.43;;;11.80;99.90;;;;;;5132512;27;20043;-65
2023/04/17 10:17:32;;;;;;;21.67;15.90;;;12.00;99.90;;;;;;5114260;27;20071;-64
2023/04/17 10:20:16;;;;;;;21.90;15.30;;;12.40;99.90;;;;;;5132737;27;20055;-64
2023/04/17 10:22:55;;;;;;;24.40;16.10;;;12.80;99.90;;;;;;5131741;27;20043;-63
2023/04/17 10:25:26;;;;;;;23.00;15.65;;;12.70;99.90;;;;;;5132400;27;20100;-65
2023/04/17 10:28:01;;;;;;;21.70;15.85;;;13.00;99.90;;;;;;5132216;27;20111;-63
2023/04/17 10:30:51;;;;;;;22.05;16.13;;;13.20;99.90;;;;;;5132306;27;20045;-64
2023/04/17 10:33:20;;;;;;;19.48;15.13;;;13.20;99.90;;;;;;5132995;27;20066;-66
2023/04/17 10:35:47;;;;;;;23.98;15.27;;;13.40;99.90;;;;;;5132546;27;20058;-64
2023/04/17 10:38:15;;;;;;;20.10;14.77;;;13.30;99.90;;;;;;5131658;27;20130;-63
2023/04/17 10:40:42;;;;;;;22.13;14.77;;;13.60;99.90;;;;;;5132340;27;20043;-63
2023/04/17 10:43:19;;;;;;;22.02;14.95;;;12.90;99.90;;;;;;5113712;27;20087;-64
2023/04/17 10:46:03;;;;;;;;;;;13.00;99.90;;;;;;5132873;27;20785;-63
2023/04/17 10:48:45;;;;;;;22.33;15.27;;;13.20;99.90;;;;;;5133195;27;20023;-62
2023/04/17 10:51:23;;;;;;;21.27;15.45;;;13.30;99.90;;;;;;5133437;27;20485;-65
2023/04/17 10:53:50;;;;;;;21.48;14.30;;;13.50;99.90;;;;;;5149832;27;20053;-64
2023/04/17 10:56:27;;;;;;;18.52;14.45;;;13.10;99.90;;;;;;5135238;27;20050;-63
2023/04/17 10:58:59;;;;;;;22.40;16.23;;;13.20;99.90;;;;;;5153765;27;20073;-65
2023/04/17 11:01:41;;;;;;;20.40;15.73;;;12.50;99.90;;;;;;5153373;27;20470;-64
2023/04/17 11:04:08;;;;;;;20.65;15.75;;;12.70;99.90;;;;;;5138595;27;20375;-63
2023/04/17 11:06:38;;;;;;;19.48;15.05;;;12.80;99.90;;;;;;5150194;27;20054;-64
2023/04/17 11:09:08;;;;;;;22.15;15.27;;;13.00;99.90;;;;;;5153552;27;20050;-65
2023/04/17 11:11:42;;;;;;;22.30;15.02;;;13.00;99.90;;;;;;5152840;27;20062;-65
2023/04/17 11:14:13;;;;;;;21.17;13.95;;;12.70;99.90;;;;;;5153391;27;20095;-64
2023/04/17 11:16:40;;;;;;;20.35;15.88;;;12.50;99.90;;;;;;5153353;27;20075;-66
2023/04/17 11:19:15;;;;;;;22.17;16.60;;;12.30;99.90;;;;;;5152333;27;20138;-63
2023/04/17 11:21:46;;;;;;;21.65;15.07;;;12.30;99.90;;;;;;5153362;27;20039;-64
2023/04/17 11:24:12;;;;;;;18.67;15.30;;;12.10;99.90;;;;;;5153440;27;20112;-63
2023/04/17 11:26:45;;;;;;;26.80;17.08;;;12.10;99.90;;;;;;5152818;27;20047;-63
2023/04/17 11:29:15;;;;;;;25.90;18.75;;;12.60;99.90;;;;;;5153284;27;20043;-64
2023/04/17 11:31:41;;;;;;;25.67;18.55;;;12.80;99.90;;;;;;5153228;27;20045;-64
2023/04/17 11:34:08;;;;;;;24.88;18.75;;;12.70;99.90;;;;;;5151807;27;20506;-64
2023/04/17 11:36:34;;;;;;;29.42;20.90;;;12.50;99.90;;;;;;5144468;27;20084;-63
2023/04/17 11:39:00;;;;;;;;;;;11.90;99.90;;;;;;5131619;28;20043;-65
2023/04/17 11:41:38;;;;;;;30.90;21.55;;;11.70;99.90;;;;;;5132438;28;19919;-64
2023/04/17 11:44:08;;;;;;;32.25;21.90;;;12.00;99.90;;;;;;5132495;28;20075;-64
2023/04/17 11:46:34;;;;;;;28.08;21.10;;;12.50;99.90;;;;;;5132683;28;20058;-63
2023/04/17 11:49:03;;;;;;;31.85;23.45;;;12.40;99.90;;;;;;5134938;27;20051;-65
2023/04/17 11:51:31;;;;;;;30.98;22.48;;;12.60;99.90;;;;;;5136246;27;20513;-63
2023/04/17 11:53:57;;;;;;;34.00;23.20;;;12.90;99.90;;;;;;5136391;27;20046;-63
2023/04/17 11:56:27;;;;;;;;;;;13.70;99.90;;;;;;5136793;27;20416;-63
2023/04/17 11:58:57;;;;;;;33.17;23.77;;;13.40;99.90;;;;;;5135908;27;19919;-63
2023/04/17 12:01:25;;;;;;;32.95;22.30;;;13.50;99.90;;;;;;5135936;27;20110;-64
2023/04/17 12:03:56;;;;;;;33.03;23.83;;;13.70;99.90;;;;;;5136314;27;20090;-65
2023/04/17 12:06:23;;;;;;;35.08;23.98;;;13.70;99.90;;;;;;5136288;27;20103;-64
2023/04/17 12:08:53;;;;;;;34.03;24.10;;;13.70;99.90;;;;;;5136083;27;20072;-64
2023/04/17 12:11:23;;;;;;;35.42;24.60;;;14.10;99.90;;;;;;5136095;27;20058;-63
2023/04/17 12:13:49;;;;;;;32.50;24.77;;;13.70;99.90;;;;;;5136003;27;20050;-64
2023/04/17 12:16:15;;;;;;;37.85;25.27;;;13.80;99.90;;;;;;5117689;27;20142;-63
2023/04/17 12:18:41;;;;;;;;;;;14.20;99.90;;;;;;5136594;27;20142;-64
2023/04/17 12:21:06;;;;;;;34.80;23.85;;;14.10;99.90;;;;;;5135825;27;19924;-64
2023/04/17 12:23:32;;;;;;;;;;;13.90;99.90;;;;;;5136305;27;20138;-64
2023/04/17 12:25:57;;;;;;;31.50;23.27;;;14.00;99.90;;;;;;5135877;27;19919;-63
2023/04/17 12:28:23;;;;;;;;;;;14.30;99.90;;;;;;5136155;27;20498;-64
2023/04/17 12:30:49;;;;;;;30.45;23.25;;;13.80;99.90;;;;;;5135479;27;19949;-64
2023/04/17 12:33:14;;;;;;;;;;;14.20;99.90;;;;;;5136063;27;20053;-63
2023/04/17 12:35:40;;;;;;;28.35;21.58;;;14.40;99.90;;;;;;5117241;27;19953;-63
2023/04/17 12:38:06;;;;;;;;;;;14.70;99.90;;;;;;5136045;27;20106;-64
2023/04/17 12:40:32;;;;;;;29.15;20.88;;;15.00;99.90;;;;;;5129753;27;19919;-67
2023/04/17 12:42:57;;;;;;;33.97;20.80;;;15.20;99.90;;;;;;5134749;27;20513;-66
2023/04/17 12:45:23;;;;;;;;;;;15.40;99.90;;;;;;5135868;27;20047;-67